Time;durP1;ratioP1;P1;durP2;ratioP2;P2;SDS_P1;SDS_P2;PMS_P1;PMS_P2;Temp;Humidity;BMP_temperature;BMP_pressure;BME280_temperature;BME280_humidity;BME280_pressure;Samples;Min_cycle;Max_cycle;Signal;HPM_P1;HPM_P2
2021/07/06 00:01:27;;;;;;;6.07;1.70;;;;;;;15.27;91.11;98220.13;4994934;28;20153;-66
2021/07/06 00:03:53;;;;;;;3.60;1.77;;;;;;;15.28;92.04;98216.34;4994868;28;20030;-66
2021/07/06 00:06:19;;;;;;;2.85;1.27;;;;;;;15.23;91.73;98232.59;4997314;28;20101;-66
2021/07/06 00:08:44;;;;;;;9.18;1.80;;;;;;;15.13;92.60;98221.53;5006303;28;20030;-66
2021/07/06 00:11:10;;;;;;;3.33;1.48;;;;;;;15.20;92.87;98238.56;4992568;28;20242;-66
2021/07/06 00:13:35;;;;;;;2.30;1.60;;;;;;;15.22;93.00;98249.19;4992667;28;20395;-66
2021/07/06 00:16:00;;;;;;;3.50;1.70;;;;;;;15.24;92.25;98249.78;4995209;28;20395;-66
2021/07/06 00:18:26;;;;;;;1.90;1.38;;;;;;;15.16;92.36;98242.00;5007917;28;20435;-66
2021/07/06 00:20:51;;;;;;;3.83;1.48;;;;;;;15.18;92.56;98246.13;4993123;28;20145;-66
2021/07/06 00:23:16;;;;;;;2.95;1.48;;;;;;;15.25;92.57;98252.25;4990695;28;20136;-66
2021/07/06 00:25:42;;;;;;;4.80;1.52;;;;;;;15.30;92.62;98243.31;4993752;28;20038;-66
2021/07/06 00:28:07;;;;;;;3.88;1.30;;;;;;;15.30;93.00;98246.03;4993994;28;20081;-67
2021/07/06 00:30:32;;;;;;;5.43;1.20;;;;;;;15.38;91.72;98229.31;4994062;28;20019;-66
2021/07/06 00:32:58;;;;;;;3.10;1.27;;;;;;;15.36;91.58;98231.44;4994152;28;20034;-66
2021/07/06 00:35:23;;;;;;;3.83;1.40;;;;;;;15.45;91.58;98227.22;4994191;28;20022;-66
2021/07/06 00:37:48;;;;;;;3.67;1.33;;;;;;;15.66;90.49;98232.97;4992986;28;20034;-66
2021/07/06 00:40:15;;;;;;;3.08;1.30;;;;;;;15.81;89.97;98222.31;4992861;28;20105;-66
2021/07/06 00:42:42;;;;;;;4.30;1.40;;;;;;;15.71;88.62;98194.91;4993494;28;20110;-66
2021/07/06 00:45:09;;;;;;;3.05;1.35;;;;;;;15.83;88.84;98211.19;4994583;28;20030;-66
2021/07/06 00:47:36;;;;;;;1.60;1.40;;;;;;;15.81;88.43;98205.13;4994134;28;20049;-66
2021/07/06 00:50:06;;;;;;;2.38;1.42;;;;;;;15.84;89.03;98207.34;4992474;28;20093;-66
2021/07/06 00:52:32;;;;;;;2.05;1.30;;;;;;;16.02;88.32;98195.31;4992881;28;20030;-66
2021/07/06 00:54:57;;;;;;;2.13;1.27;;;;;;;15.98;87.44;98193.09;4991595;28;20048;-66
2021/07/06 00:57:29;;;;;;;3.60;1.02;;;;;;;15.96;87.52;98175.34;4975055;28;20477;-66
2021/07/06 00:59:59;;;;;;;3.03;1.48;;;;;;;16.04;87.39;98194.00;4992276;28;20058;-66
2021/07/06 01:02:25;;;;;;;3.28;1.30;;;;;;;15.76;87.44;98160.34;4992953;28;20030;-66
2021/07/06 01:04:52;;;;;;;1.90;1.38;;;;;;;15.79;88.39;98186.28;5000387;28;20038;-66
2021/07/06 01:07:18;;;;;;;2.97;1.30;;;;;;;15.64;88.25;98178.72;4993700;28;20026;-66
2021/07/06 01:09:43;;;;;;;3.63;1.45;;;;;;;15.60;89.21;98179.44;4993693;28;20033;-66
2021/07/06 01:12:10;;;;;;;2.03;1.38;;;;;;;15.46;90.07;98152.56;4993247;28;20113;-66
2021/07/06 01:14:36;;;;;;;2.97;1.55;;;;;;;15.51;89.86;98168.97;4993170;28;20480;-66
2021/07/06 01:17:01;;;;;;;2.42;1.40;;;;;;;15.52;90.60;98172.53;4991653;28;20117;-66
2021/07/06 01:19:27;;;;;;;2.15;1.40;;;;;;;15.47;90.57;98178.72;4993684;28;20031;-66
2021/07/06 01:21:52;;;;;;;1.92;1.25;;;;;;;15.60;89.52;98172.09;4992803;28;20079;-66
2021/07/06 01:24:18;;;;;;;4.05;1.50;;;;;;;15.81;88.62;98177.88;4992973;28;20109;-66
2021/07/06 01:26:43;;;;;;;2.65;1.40;;;;;;;15.85;88.09;98179.84;4993330;28;20037;-66
2021/07/06 01:29:08;;;;;;;2.22;1.25;;;;;;;15.77;88.50;98177.53;4992922;28;20631;-66
2021/07/06 01:31:34;;;;;;;2.08;1.80;;;;;;;15.63;89.56;98176.22;4992386;28;20025;-66
2021/07/06 01:33:59;;;;;;;5.28;1.33;;;;;;;15.46;89.61;98154.47;4992887;28;20420;-67
2021/07/06 01:36:24;;;;;;;4.45;1.40;;;;;;;15.39;89.66;98176.44;4993642;28;20030;-66
2021/07/06 01:38:50;;;;;;;4.05;1.52;;;;;;;15.29;90.63;98173.53;4991793;28;20030;-66
2021/07/06 01:41:16;;;;;;;2.70;1.48;;;;;;;15.50;90.15;98171.94;4991059;28;20056;-66
2021/07/06 01:43:42;;;;;;;3.35;1.50;;;;;;;15.30;89.92;98142.47;4995130;28;20026;-66
2021/07/06 01:46:07;;;;;;;1.60;1.30;;;;;;;15.69;89.63;98175.22;4994326;28;20041;-66
2021/07/06 01:48:32;;;;;;;2.22;1.40;;;;;;;15.64;89.24;98167.81;4993902;28;20065;-66
2021/07/06 01:50:58;;;;;;;2.03;1.27;;;;;;;15.63;89.82;98170.75;4990965;28;20030;-67
2021/07/06 01:53:24;;;;;;;2.97;1.30;;;;;;;15.61;89.76;98159.28;4989013;28;20609;-66
2021/07/06 01:55:51;;;;;;;1.27;1.13;;;;;;;15.53;89.16;98153.16;4993306;28;20058;-66
2021/07/06 01:58:18;;;;;;;3.78;1.52;;;;;;;15.57;89.43;98154.34;4993096;28;20066;-66
2021/07/06 02:01:03;;;;;;;1.77;1.02;;;;;;;15.55;89.20;98137.41;4991191;28;20047;-66
2021/07/06 02:03:28;;;;;;;1.60;1.17;;;;;;;15.52;88.44;98115.28;4992882;28;20034;-66
2021/07/06 02:05:58;;;;;;;2.05;1.42;;;;;;;15.63;88.63;98138.88;4991128;28;20069;-66
2021/07/06 02:08:25;;;;;;;3.35;1.30;;;;;;;15.67;88.45;98136.47;4991689;28;20435;-66
2021/07/06 02:10:53;;;;;;;3.08;1.17;;;;;;;15.60;88.57;98139.38;4992816;28;20103;-66
2021/07/06 02:13:23;;;;;;;1.58;1.10;;;;;;;15.50;89.49;98126.41;4992809;28;20037;-66
2021/07/06 02:15:51;;;;;;;3.97;1.20;;;;;;;15.43;88.74;98125.78;4987069;28;20037;-66
2021/07/06 02:18:20;;;;;;;1.38;1.00;;;;;;;15.29;89.62;98116.31;4984583;28;20583;-66
2021/07/06 02:20:47;;;;;;;1.38;1.00;;;;;;;15.38;89.84;98123.00;4992085;28;20033;-66
2021/07/06 02:23:14;;;;;;;1.88;1.23;;;;;;;15.52;89.07;98116.09;4992387;28;20037;-66
2021/07/06 02:25:39;;;;;;;2.85;1.33;;;;;;;15.49;88.47;98121.25;4992459;28;20037;-66
2021/07/06 02:28:05;;;;;;;2.55;1.50;;;;;;;15.55;89.00;98118.31;4991997;28;20026;-66
2021/07/06 02:30:30;;;;;;;1.90;1.50;;;;;;;15.42;89.24;98104.22;4992508;28;20104;-66
2021/07/06 02:32:56;;;;;;;2.63;1.00;;;;;;;15.48;89.05;98119.56;4991051;28;20050;-67
2021/07/06 02:35:26;;;;;;;1.77;1.20;;;;;;;15.36;89.50;98122.41;4991998;28;20404;-66
2021/07/06 02:37:51;;;;;;;3.20;1.90;;;;;;;15.27;89.82;98119.31;4991796;28;20034;-66
2021/07/06 02:40:16;;;;;;;3.00;1.30;;;;;;;15.22;89.99;98107.47;4992481;28;20026;-66
2021/07/06 02:42:42;;;;;;;3.58;1.30;;;;;;;15.18;89.83;98090.00;4992384;28;20034;-67
2021/07/06 02:45:13;;;;;;;5.25;1.50;;;;;;;15.36;89.08;98122.41;4990753;28;20121;-66
2021/07/06 02:47:38;;;;;;;2.42;1.52;;;;;;;15.38;88.43;98112.09;4991598;28;20503;-67
2021/07/06 02:50:06;;;;;;;4.80;1.30;;;;;;;15.53;88.38;98111.47;4992088;28;20034;-67
2021/07/06 02:52:31;;;;;;;4.20;1.40;;;;;;;15.43;89.06;98114.91;4992390;28;20488;-66
2021/07/06 02:54:56;;;;;;;4.18;1.42;;;;;;;15.49;88.37;98113.88;4992066;28;20037;-66
2021/07/06 02:57:35;;;;;;;2.53;1.35;;;;;;;15.32;89.20;98088.56;4988595;28;20084;-66
2021/07/06 03:00:07;;;;;;;7.38;1.25;;;;;;;15.37;89.32;98107.69;4990865;28;20028;-66
2021/07/06 03:02:32;;;;;;;2.42;1.33;;;;;;;15.22;89.23;98115.66;4995059;28;20039;-66
2021/07/06 03:04:57;;;;;;;3.42;1.40;;;;;;;15.10;89.94;98105.69;4996156;28;20050;-66
2021/07/06 03:07:23;;;;;;;4.50;1.30;;;;;;;15.17;90.44;98115.59;4996537;28;20026;-66
2021/07/06 03:09:48;;;;;;;4.20;1.13;;;;;;;15.19;90.68;98111.53;4997255;28;20034;-66
2021/07/06 03:12:13;;;;;;;2.50;1.10;;;;;;;15.13;90.46;98124.25;4993957;28;20072;-66
2021/07/06 03:14:39;;;;;;;3.30;1.40;;;;;;;15.16;90.70;98120.22;4995840;28;20026;-67
2021/07/06 03:17:04;;;;;;;3.88;1.35;;;;;;;15.21;90.03;98122.19;4995725;28;20037;-66
2021/07/06 03:19:29;;;;;;;6.60;1.20;;;;;;;15.27;89.75;98118.47;4996240;28;20026;-66
2021/07/06 03:21:55;;;;;;;3.45;1.90;;;;;;;15.15;89.39;98085.88;4996161;28;20027;-67
2021/07/06 03:24:20;;;;;;;2.85;1.20;;;;;;;15.40;88.87;98111.81;4995492;28;20113;-67
2021/07/06 03:26:45;;;;;;;3.40;1.20;;;;;;;15.46;88.37;98098.03;4994527;28;20034;-66
2021/07/06 03:29:11;;;;;;;4.57;1.17;;;;;;;15.47;87.79;98101.56;4994832;28;20484;-66
2021/07/06 03:31:36;;;;;;;5.53;1.38;;;;;;;15.47;88.16;98096.94;5002719;28;20381;-66
2021/07/06 03:34:01;;;;;;;4.55;1.35;;;;;;;15.50;87.96;98104.59;4991441;28;20030;-72
2021/07/06 03:36:27;;;;;;;1.25;1.10;;;;;;;15.41;87.82;98087.06;4995494;28;20022;-70
2021/07/06 03:38:52;;;;;;;2.58;1.15;;;;;;;15.50;87.02;98092.88;4993121;28;20038;-69
2021/07/06 03:41:17;;;;;;;2.33;1.30;;;;;;;15.52;87.73;98093.47;4990947;28;20029;-72
2021/07/06 03:43:43;;;;;;;2.00;1.20;;;;;;;15.52;87.43;98099.75;4999586;28;20085;-73
2021/07/06 03:46:08;;;;;;;2.47;1.40;;;;;;;15.55;86.58;98095.69;4998718;28;20022;-73
2021/07/06 03:48:33;;;;;;;2.20;1.27;;;;;;;15.60;85.40;98076.66;4994770;28;20022;-71
2021/07/06 03:50:59;;;;;;;2.55;1.15;;;;;;;15.72;86.54;98087.47;4992877;28;20116;-72
2021/07/06 03:53:24;;;;;;;2.70;1.42;;;;;;;15.78;85.43;98078.28;4992098;28;20026;-72
2021/07/06 03:55:49;;;;;;;2.22;1.00;;;;;;;15.89;84.16;98050.03;4994718;28;20054;-73
2021/07/06 03:58:15;;;;;;;4.93;1.10;;;;;;;16.10;83.71;98061.97;4994190;28;20376;-72
2021/07/06 04:00:40;;;;;;;4.32;0.95;;;;;;;16.11;83.19;98044.53;4990663;28;20030;-72
2021/07/06 04:03:05;;;;;;;3.33;1.05;;;;;;;16.25;83.23;98039.47;4995023;28;20034;-74
2021/07/06 04:05:31;;;;;;;3.03;1.17;;;;;;;16.46;82.80;98053.31;4994974;28;20084;-73
2021/07/06 04:07:56;;;;;;;2.53;1.25;;;;;;;16.23;83.08;98030.72;4994661;28;20018;-76
2021/07/06 04:10:21;;;;;;;2.25;1.13;;;;;;;16.37;83.10;98059.25;4994383;28;20063;-75
2021/07/06 04:12:49;;;;;;;3.22;1.30;;;;;;;16.06;83.38;98032.72;4993369;28;20523;-77
2021/07/06 04:15:15;;;;;;;3.90;1.40;;;;;;;16.27;82.50;98053.69;5001720;28;20061;-71
2021/07/06 04:17:41;;;;;;;1.60;1.00;;;;;;;16.31;82.33;98057.53;4995021;28;20037;-72
2021/07/06 04:20:08;;;;;;;1.63;0.98;;;;;;;16.49;82.23;98064.53;4990728;28;20026;-72
2021/07/06 04:22:34;;;;;;;1.60;0.98;;;;;;;16.51;82.52;98058.81;4993900;28;20100;-74
2021/07/06 04:25:00;;;;;;;5.03;1.35;;;;;;;16.56;82.57;98061.59;4995560;28;20033;-76
2021/07/06 04:27:25;;;;;;;1.52;0.95;;;;;;;16.53;81.63;98043.81;4994314;28;20022;-73
2021/07/06 04:29:51;;;;;;;2.90;1.15;;;;;;;16.72;81.22;98055.16;4988959;28;20057;-74
2021/07/06 04:32:17;;;;;;;2.78;0.93;;;;;;;16.93;80.45;98069.84;4995018;28;20034;-77
2021/07/06 04:34:46;;;;;;;4.57;1.52;;;;;;;16.99;79.16;98029.69;4993067;28;20113;-72
2021/07/06 04:37:12;;;;;;;3.35;0.93;;;;;;;17.59;75.79;98055.69;4992313;28;20031;-66
2021/07/06 04:39:38;;;;;;;1.30;0.90;;;;;;;17.83;74.82;98041.59;4994594;28;20026;-66
2021/07/06 04:42:03;;;;;;;1.80;0.90;;;;;;;18.03;74.63;98043.56;4993378;28;20502;-68
2021/07/06 04:44:29;;;;;;;4.00;1.00;;;;;;;18.03;74.96;98041.66;4993711;28;20105;-66
2021/07/06 04:46:54;;;;;;;2.85;1.10;;;;;;;17.87;75.61;98016.16;4993673;28;20037;-73
2021/07/06 04:49:19;;;;;;;4.43;1.10;;;;;;;18.10;74.46;98035.91;4989513;28;20089;-70
2021/07/06 04:51:45;;;;;;;1.13;0.90;;;;;;;18.19;73.43;98026.06;4991801;28;20053;-71
2021/07/06 04:54:10;;;;;;;2.33;0.90;;;;;;;18.41;72.58;98028.53;4993932;28;20026;-68
2021/07/06 04:56:35;;;;;;;1.55;0.90;;;;;;;18.47;72.15;98018.41;4993726;28;20030;-67
2021/07/06 04:59:02;;;;;;;1.52;1.00;;;;;;;18.56;72.59;98014.84;4994183;28;20030;-76
2021/07/06 05:01:27;;;;;;;3.53;1.00;;;;;;;18.56;73.19;98011.31;4990244;28;20034;-69
2021/07/06 05:03:54;;;;;;;1.08;0.80;;;;;;;19.13;70.90;98012.88;4991571;28;20033;-66
2021/07/06 05:06:20;;;;;;;2.95;1.00;;;;;;;19.41;69.16;98008.69;4991943;28;20034;-66
2021/07/06 05:08:46;;;;;;;2.28;1.00;;;;;;;19.72;69.42;98019.53;4994757;28;20069;-71
2021/07/06 05:11:12;;;;;;;2.53;0.63;;;;;;;20.06;68.34;98027.03;4993441;28;20109;-70
2021/07/06 05:13:37;;;;;;;1.88;1.00;;;;;;;20.05;68.55;98018.00;4988857;28;20066;-70
2021/07/06 05:16:03;;;;;;;2.00;0.77;;;;;;;20.21;69.14;98032.44;4993750;28;20061;-68
2021/07/06 05:18:29;;;;;;;3.45;0.80;;;;;;;20.30;70.46;98033.50;4994068;28;20032;-70
2021/07/06 05:20:54;;;;;;;4.97;0.80;;;;;;;20.28;69.88;98026.63;4991472;28;20057;-73
2021/07/06 05:23:19;;;;;;;2.15;0.90;;;;;;;20.14;69.95;98020.94;4992954;28;20049;-70
2021/07/06 05:25:44;;;;;;;1.50;0.70;;;;;;;19.89;67.80;98025.50;4996886;28;20018;-70
2021/07/06 05:28:10;;;;;;;0.82;0.60;;;;;;;19.91;67.71;98034.28;4995089;28;20469;-69
2021/07/06 05:30:36;;;;;;;1.70;0.80;;;;;;;19.93;67.76;98034.78;4995615;28;20109;-71
2021/07/06 05:33:02;;;;;;;0.88;0.60;;;;;;;19.95;68.29;98039.19;4998823;28;20065;-67
2021/07/06 05:35:28;;;;;;;1.58;0.80;;;;;;;19.77;68.86;98041.47;5003301;28;20031;-74
2021/07/06 05:37:53;;;;;;;1.02;0.68;;;;;;;19.78;68.18;98012.09;5017240;28;20022;-78
2021/07/06 05:40:20;;;;;;;0.98;0.63;;;;;;;20.00;68.38;98019.94;5017588;28;20062;-76
2021/07/06 05:42:45;;;;;;;1.02;0.77;;;;;;;20.16;67.03;98012.44;5012048;28;20021;-78
2021/07/06 05:45:17;;;;;;;1.50;0.80;;;;;;;20.24;66.86;98004.41;5113703;27;20389;-79
2021/07/06 05:47:43;;;;;;;0.65;0.60;;;;;;;20.40;66.50;97991.34;5098617;28;20031;-76
2021/07/06 05:50:13;;;;;;;2.85;0.90;;;;;;;20.75;65.31;98009.50;5116127;28;20031;-80
2021/07/06 05:52:39;;;;;;;1.40;0.88;;;;;;;20.92;63.05;97989.81;5095161;28;20119;-73
2021/07/06 05:55:28;;;;;;;1.67;0.77;;;;;;;21.23;63.56;98006.81;5072787;28;20005;-77
2021/07/06 05:57:53;;;;;;;4.22;0.80;;;;;;;21.39;61.32;97985.47;5080801;28;20033;-77
2021/07/06 06:00:20;;;;;;;5.15;0.85;;;;;;;21.83;61.25;97994.53;5052258;28;20524;-76
2021/07/06 06:02:46;;;;;;;3.10;0.65;;;;;;;22.39;59.67;97996.47;5058549;28;20040;-76
2021/07/06 06:05:12;;;;;;;3.00;0.70;;;;;;;22.51;60.30;97993.25;5057200;28;20155;-78
2021/07/06 06:07:41;;;;;;;0.65;0.57;;;;;;;22.71;59.24;98011.38;5061793;28;20511;-75
2021/07/06 06:10:08;;;;;;;;;;;;;;;22.53;60.11;98022.16;5059886;28;20025;-79
2021/07/06 06:12:34;;;;;;;1.48;0.60;;;;;;;22.22;60.17;97987.94;5043421;28;20003;-81
2021/07/06 06:14:59;;;;;;;0.90;0.60;;;;;;;21.97;60.50;98014.72;5053835;28;20118;-79
2021/07/06 06:17:24;;;;;;;3.45;0.70;;;;;;;22.08;60.16;98013.44;5054878;28;20038;-77
2021/07/06 06:19:50;;;;;;;0.93;0.65;;;;;;;22.12;60.68;98001.84;5069214;28;20025;-76
2021/07/06 06:22:15;;;;;;;2.22;0.43;;;;;;;22.31;60.74;98013.69;5050866;28;20020;-75
2021/07/06 06:24:40;;;;;;;1.83;0.77;;;;;;;22.39;60.93;98012.19;5051347;28;20542;-77
2021/07/06 06:27:06;;;;;;;2.78;0.70;;;;;;;22.39;61.63;98018.53;5058921;28;20036;-74
2021/07/06 06:29:31;;;;;;;3.63;0.65;;;;;;;22.67;60.97;98013.13;5037768;28;20032;-74
2021/07/06 06:31:56;;;;;;;1.45;0.95;;;;;;;23.16;60.89;98028.25;5051884;28;20020;-77
2021/07/06 06:34:22;;;;;;;9.25;0.95;;;;;;;23.16;60.96;98025.50;5068395;28;20020;-76
2021/07/06 06:36:47;;;;;;;8.02;1.10;;;;;;;23.50;60.39;98018.75;5072065;28;20039;-76
2021/07/06 06:39:12;;;;;;;3.03;0.75;;;;;;;23.71;59.42;98028.28;5051282;28;20443;-74
2021/07/06 06:41:38;;;;;;;1.40;0.77;;;;;;;23.47;59.48;98002.81;5068212;28;20029;-76
2021/07/06 06:44:04;;;;;;;1.90;0.90;;;;;;;23.34;60.18;97999.78;5056801;28;20514;-77
2021/07/06 06:46:29;;;;;;;0.90;0.60;;;;;;;23.23;60.16;98019.59;5053481;28;20025;-77
2021/07/06 06:48:54;;;;;;;0.90;0.60;;;;;;;23.34;58.85;98008.06;5064469;28;20040;-73
2021/07/06 06:51:20;;;;;;;2.15;0.70;;;;;;;23.76;57.33;97995.06;5070059;28;20032;-78
2021/07/06 06:53:45;;;;;;;1.10;0.50;;;;;;;24.47;56.36;98030.50;5071907;28;20115;-69
2021/07/06 06:56:11;;;;;;;4.70;0.68;;;;;;;25.03;55.81;98026.31;5070133;28;20036;-73
2021/07/06 06:58:36;;;;;;;1.40;0.70;;;;;;;25.46;53.64;98013.84;5035139;28;20064;-75
2021/07/06 07:01:01;;;;;;;3.83;0.77;;;;;;;26.19;51.93;98020.53;5035143;28;20025;-71
2021/07/06 07:03:27;;;;;;;4.60;0.80;;;;;;;26.11;51.32;97999.16;5037088;28;20435;-70
2021/07/06 07:05:53;;;;;;;4.20;0.70;;;;;;;26.98;50.10;98037.16;5042414;28;20045;-70
2021/07/06 07:08:18;;;;;;;4.57;0.70;;;;;;;28.10;47.31;98032.31;5019566;28;20438;-70
2021/07/06 07:10:46;;;;;;;2.95;0.63;;;;;;;28.76;45.83;98043.56;5054445;28;20027;-70
2021/07/06 07:13:11;;;;;;;2.85;0.70;;;;;;;29.60;43.86;98045.28;5040475;28;20021;-70
2021/07/06 07:15:37;;;;;;;3.83;0.75;;;;;;;29.83;42.84;98040.09;5046853;28;20040;-70
2021/07/06 07:18:02;;;;;;;2.58;0.88;;;;;;;28.11;47.18;98042.25;5042828;28;20032;-70
2021/07/06 07:20:27;;;;;;;1.50;0.95;;;;;;;27.97;48.49;98051.66;5038993;28;20437;-75
2021/07/06 07:22:53;;;;;;;2.20;0.80;;;;;;;27.56;50.41;98059.88;5052462;28;20029;-73
2021/07/06 07:25:20;;;;;;;4.40;0.95;;;;;;;27.64;50.03;98056.22;5041949;28;20458;-74
2021/07/06 07:27:46;;;;;;;2.40;0.80;;;;;;;26.57;52.49;98033.00;5047010;28;20017;-73
2021/07/06 07:30:13;;;;;;;2.97;0.98;;;;;;;25.65;55.05;98031.03;5033096;28;20384;-76
2021/07/06 07:32:38;;;;;;;2.50;1.00;;;;;;;26.75;52.33;98029.06;5040155;28;20028;-79
2021/07/06 07:35:05;;;;;;;2.17;1.00;;;;;;;27.40;49.88;98037.38;5052420;28;20041;-77
2021/07/06 07:37:30;;;;;;;3.63;0.82;;;;;;;29.90;44.88;98018.84;5023049;28;20116;-73
2021/07/06 07:39:55;;;;;;;3.13;0.75;;;;;;;32.39;40.10;98019.50;5049022;28;20450;-71
2021/07/06 07:42:21;;;;;;;1.92;0.63;;;;;;;32.80;39.06;98024.75;5034174;28;20533;-71
2021/07/06 07:44:47;;;;;;;3.22;0.63;;;;;;;33.76;37.66;98006.91;5033762;28;20506;-70
2021/07/06 07:47:12;;;;;;;2.30;0.70;;;;;;;34.81;35.79;98014.78;5047111;28;20039;-72
2021/07/06 07:49:38;;;;;;;2.55;0.77;;;;;;;35.59;33.16;98017.63;5044189;28;20029;-70
2021/07/06 07:52:04;;;;;;;1.63;0.93;;;;;;;35.31;34.95;98001.28;5038658;28;20025;-70
2021/07/06 07:54:29;;;;;;;2.58;0.90;;;;;;;35.84;33.64;98012.19;5044305;28;20047;-70
2021/07/06 07:56:55;;;;;;;3.28;0.60;;;;;;;36.66;32.24;97972.44;5041935;28;20041;-71
2021/07/06 07:59:20;;;;;;;3.00;0.70;;;;;;;37.17;31.38;97988.28;5049614;28;20025;-72
2021/07/06 08:01:45;;;;;;;3.40;0.88;;;;;;;36.94;32.00;97982.16;5045494;28;20021;-77
2021/07/06 08:04:10;;;;;;;1.13;0.80;;;;;;;38.26;30.28;97995.53;5038674;28;20024;-73
2021/07/06 08:06:36;;;;;;;1.33;0.55;;;;;;;38.62;29.12;97987.75;5054342;28;20108;-74
2021/07/06 08:09:01;;;;;;;2.85;0.52;;;;;;;35.88;32.61;98001.78;5032867;28;20064;-71
2021/07/06 08:11:27;;;;;;;1.67;0.60;;;;;;;32.42;37.85;97989.97;5044661;28;20041;-73
2021/07/06 08:13:52;;;;;;;3.33;0.70;;;;;;;30.21;41.99;97992.28;5053219;28;20017;-75
2021/07/06 08:16:17;;;;;;;1.98;0.60;;;;;;;28.87;45.17;97988.25;5052612;28;20510;-75
2021/07/06 08:18:43;;;;;;;1.02;0.60;;;;;;;28.29;44.85;97978.97;5036072;28;20020;-76
2021/07/06 08:21:08;;;;;;;0.50;0.40;;;;;;;28.46;45.52;97978.84;5045011;28;20395;-74
2021/07/06 08:23:33;;;;;;;3.47;0.60;;;;;;;30.66;40.98;97954.91;5033980;28;20390;-76
2021/07/06 08:25:59;;;;;;;2.05;0.73;;;;;;;31.12;40.22;98002.84;5031033;28;20114;-70
2021/07/06 08:28:26;;;;;;;2.38;0.70;;;;;;;31.36;39.93;97975.91;5051278;28;20025;-75
2021/07/06 08:30:53;;;;;;;5.97;0.50;;;;;;;32.97;37.44;97991.50;5046848;28;20475;-68
2021/07/06 08:33:18;;;;;;;1.65;0.70;;;;;;;35.36;34.06;98012.19;5025500;28;20038;-67
2021/07/06 08:35:44;;;;;;;3.20;0.98;;;;;;;35.64;32.57;98014.47;5043810;28;20478;-71
2021/07/06 08:38:09;;;;;;;2.20;0.50;;;;;;;34.90;33.55;98038.59;5044714;28;20057;-72
2021/07/06 08:40:35;;;;;;;1.33;0.60;;;;;;;35.12;33.18;98050.91;5029792;28;20028;-74
2021/07/06 08:43:01;;;;;;;1.02;0.60;;;;;;;35.04;32.59;98068.88;5039778;28;20040;-74
2021/07/06 08:45:27;;;;;;;2.22;0.65;;;;;;;34.40;33.64;98074.47;5024079;28;20029;-71
2021/07/06 08:47:54;;;;;;;1.95;0.70;;;;;;;31.84;37.82;98078.19;5042240;28;20479;-74
2021/07/06 08:50:21;;;;;;;2.20;0.60;;;;;;;30.18;41.57;98093.41;5028737;28;20032;-70
2021/07/06 08:52:47;;;;;;;3.10;0.68;;;;;;;29.46;42.91;98079.88;5030516;28;21787;-70
2021/07/06 08:55:14;;;;;;;1.73;0.70;;;;;;;28.60;45.17;98112.97;5041110;28;20025;-74
2021/07/06 08:57:41;;;;;;;3.15;0.90;;;;;;;27.94;45.92;98112.72;5048795;28;20028;-77
2021/07/06 09:00:08;;;;;;;5.00;0.80;;;;;;;27.92;46.54;98126.13;5044076;28;20162;-78
2021/07/06 09:02:33;;;;;;;4.82;0.75;;;;;;;27.90;46.43;98129.25;5034642;28;20021;-75
2021/07/06 09:04:59;;;;;;;7.25;0.93;;;;;;;27.34;48.67;98152.63;5054703;28;20025;-75
2021/07/06 09:07:38;;;;;;;0.93;0.70;;;;;;;27.74;49.35;98170.63;5059121;28;20472;-72
2021/07/06 09:10:12;;;;;;;1.52;0.70;;;;;;;27.48;50.38;98183.78;5041350;28;20036;-69
2021/07/06 09:12:37;;;;;;;4.30;0.98;;;;;;;27.14;51.68;98184.63;5041929;28;20029;-68
2021/07/06 09:15:21;;;;;;;1.70;1.00;;;;;;;26.72;52.37;98192.59;5030572;28;20021;-68
2021/07/06 09:18:03;;;;;;;2.95;1.08;;;;;;;26.35;53.90;98206.69;5051330;28;20056;-69
2021/07/06 09:20:28;;;;;;;1.60;0.90;;;;;;;25.83;54.71;98230.56;5051667;28;20040;-69
2021/07/06 09:23:41;;;;;;;2.47;1.00;;;;;;;24.90;57.22;98254.94;5032509;28;20410;-70
2021/07/06 09:26:24;;;;;;;3.30;1.08;;;;;;;23.66;59.51;98293.53;5047287;28;20102;-67
2021/07/06 09:28:52;;;;;;;2.58;1.20;;;;;;;22.97;61.30;98299.50;5049531;28;20399;-68
2021/07/06 09:31:38;;;;;;;4.35;1.05;;;;;;;22.55;63.32;98308.56;5051485;28;20522;-68
2021/07/06 09:34:12;;;;;;;2.15;1.00;;;;;;;22.26;64.54;98300.34;5050899;28;20061;-69
2021/07/06 09:36:42;;;;;;;1.45;1.13;;;;;;;22.24;64.75;98319.97;5050948;28;20036;-70
2021/07/06 09:39:22;;;;;;;4.93;1.10;;;;;;;22.02;65.68;98323.16;5050916;28;20052;-67
2021/07/06 09:42:03;;;;;;;5.80;1.23;;;;;;;21.95;66.92;98344.69;5050827;28;20524;-66
2021/07/06 09:44:42;;;;;;;2.45;1.10;;;;;;;21.79;67.81;98357.78;5046806;28;20190;-66
2021/07/06 09:47:14;;;;;;;2.08;1.30;;;;;;;21.71;68.62;98360.34;5051515;28;20406;-67
2021/07/06 09:49:53;;;;;;;2.95;1.45;;;;;;;21.33;70.27;98343.50;5043497;28;20040;-68
2021/07/06 09:52:20;;;;;;;;;;;;;;;21.48;70.66;98342.59;5032731;28;20037;-67
2021/07/06 09:54:46;;;;;;;4.05;1.05;;;;;;;21.69;70.16;98351.53;5051547;28;19962;-66
2021/07/06 09:57:25;;;;;;;1.95;1.00;;;;;;;22.01;68.97;98349.06;5039163;28;20033;-71
2021/07/06 09:59:56;;;;;;;1.83;0.85;;;;;;;22.49;67.85;98354.69;5031394;28;20487;-71
2021/07/06 10:02:22;;;;;;;2.88;0.88;;;;;;;22.69;67.55;98358.34;5035758;28;20021;-72
2021/07/06 10:04:53;;;;;;;1.67;0.80;;;;;;;23.04;66.08;98356.28;5051704;28;20033;-73
2021/07/06 10:07:21;;;;;;;1.25;0.80;;;;;;;22.95;65.85;98345.88;5051103;28;20028;-67
2021/07/06 10:09:47;;;;;;;1.75;0.90;;;;;;;22.93;64.99;98315.00;5044465;28;20033;-67
2021/07/06 10:12:14;;;;;;;2.05;0.75;;;;;;;23.45;64.14;98334.44;5038389;28;20037;-73
2021/07/06 10:14:41;;;;;;;2.72;1.10;;;;;;;24.14;63.33;98331.94;5035492;28;20021;-74
2021/07/06 10:17:06;;;;;;;0.70;0.63;;;;;;;24.62;60.06;98290.13;5048444;28;20089;-74
2021/07/06 10:19:34;;;;;;;1.67;0.60;;;;;;;25.72;58.34;98307.59;5053041;28;20150;-69
2021/07/06 10:21:59;;;;;;;1.95;0.60;;;;;;;27.02;55.07;98299.13;5052802;28;20057;-69
2021/07/06 10:24:25;;;;;;;1.08;0.70;;;;;;;28.10;52.47;98302.88;5051023;28;20107;-69
2021/07/06 10:26:58;;;;;;;1.73;0.80;;;;;;;28.09;51.22;98312.38;5054177;28;20039;-69
2021/07/06 10:29:32;;;;;;;1.27;0.70;;;;;;;27.44;52.95;98283.66;5050590;28;20032;-69
2021/07/06 10:31:57;;;;;;;2.00;0.55;;;;;;;27.30;52.93;98303.28;5051876;28;20024;-70
2021/07/06 10:34:26;;;;;;;3.70;0.70;;;;;;;26.95;51.78;98296.00;5053677;28;20021;-70
2021/07/06 10:36:51;;;;;;;1.10;0.47;;;;;;;26.32;54.32;98279.44;5053138;28;20103;-69
2021/07/06 10:39:18;;;;;;;1.50;0.60;;;;;;;26.29;54.62;98282.88;5051697;28;20116;-69
2021/07/06 10:41:52;;;;;;;2.20;0.50;;;;;;;26.67;54.49;98285.97;5053201;28;20115;-68
2021/07/06 10:44:18;;;;;;;0.57;0.38;;;;;;;26.53;52.76;98284.47;5052332;28;20036;-67
2021/07/06 10:46:45;;;;;;;1.50;0.50;;;;;;;26.33;53.62;98261.69;5042540;28;20021;-68
2021/07/06 10:49:33;;;;;;;1.30;0.50;;;;;;;28.11;49.22;98273.09;5040427;28;20029;-69
2021/07/06 10:52:03;;;;;;;0.40;0.40;;;;;;;29.20;45.45;98229.81;5050752;28;20121;-68
2021/07/06 10:54:31;;;;;;;0.73;0.43;;;;;;;29.93;46.54;98252.41;5052625;28;20021;-69
2021/07/06 10:57:13;;;;;;;0.40;0.40;;;;;;;30.42;44.29;98236.91;5051467;28;20107;-71
2021/07/06 10:59:39;;;;;;;0.77;0.35;;;;;;;31.31;40.83;98238.91;5052147;28;20122;-71
2021/07/06 11:02:12;;;;;;;0.88;0.32;;;;;;;32.14;40.47;98225.25;5045160;28;20434;-69
2021/07/06 11:04:42;;;;;;;0.90;0.30;;;;;;;31.91;39.53;98233.41;5050997;28;20024;-67
2021/07/06 11:07:15;;;;;;;0.52;0.20;;;;;;;33.32;38.68;98226.06;5046051;28;20033;-68
2021/07/06 11:09:40;;;;;;;0.40;0.30;;;;;;;32.59;39.16;98238.00;5050535;28;20497;-68
2021/07/06 11:12:22;;;;;;;1.53;0.20;;;;;;;32.16;38.20;98246.13;5050363;28;20044;-70
2021/07/06 11:14:59;;;;;;;0.30;0.20;;;;;;;30.66;41.70;98222.97;5050709;28;20028;-71
2021/07/06 11:17:36;;;;;;;0.65;0.40;;;;;;;29.75;43.94;98223.09;5049160;28;20048;-73
2021/07/06 11:20:07;;;;;;;0.47;0.30;;;;;;;29.36;45.24;98233.59;5052160;28;20479;-70
2021/07/06 11:22:55;;;;;;;1.90;0.47;;;;;;;28.62;46.73;98235.91;5047418;28;20111;-70
2021/07/06 11:25:36;;;;;;;0.35;0.28;;;;;;;27.81;46.57;98270.25;5051940;28;20064;-70
2021/07/06 11:28:07;;;;;;;1.27;0.40;;;;;;;27.99;46.03;98273.78;5050637;28;20029;-68
2021/07/06 11:30:41;;;;;;;0.45;0.20;;;;;;;27.74;47.34;98258.75;5051937;28;20389;-70
2021/07/06 11:33:37;;;;;;;2.45;1.50;;;;;;;27.40;47.74;98262.41;5051741;28;20028;-69
2021/07/06 11:36:08;;;;;;;2.53;1.92;;;;;;;26.22;50.45;98266.66;5028193;28;20059;-68